createdAt,value
2023-11-12T00:02:10.024Z,30.10
2023-11-12T00:04:44.759Z,30.10
2023-11-12T00:07:16.542Z,30.20
2023-11-12T00:09:48.267Z,31.20
2023-11-12T00:12:20.753Z,30.10
2023-11-12T00:14:52.570Z,31.80
2023-11-12T00:17:25.980Z,30.90
2023-11-12T00:19:57.837Z,32.10
2023-11-12T00:22:30.179Z,30.80
2023-11-12T00:25:02.905Z,33.10
2023-11-12T00:27:34.646Z,30.60
2023-11-12T00:30:07.253Z,31.20
2023-11-12T00:39:53.193Z,26.80
2023-11-12T00:42:25.118Z,25.10
2023-11-12T00:44:56.895Z,26.60
2023-11-12T00:47:28.611Z,24.50
2023-11-12T00:50:00.448Z,25.80
2023-11-12T00:52:32.262Z,24.60
2023-11-12T00:55:04.299Z,24.10
2023-11-12T00:57:39.213Z,21.60
2023-11-12T01:00:11.756Z,20.90
2023-11-12T01:02:43.696Z,21.00
2023-11-12T01:05:15.732Z,19.60
2023-11-12T01:07:47.520Z,20.30
2023-11-12T01:10:19.299Z,21.20
2023-11-12T01:12:51.593Z,20.60
2023-11-12T01:15:24.479Z,21.70
2023-11-12T01:17:57.177Z,21.90
2023-11-12T01:20:29.015Z,20.80
2023-11-12T01:23:00.681Z,21.30
2023-11-12T01:25:34.274Z,19.70
2023-11-12T01:30:38.414Z,18.90
2023-11-12T01:33:11.671Z,19.00
2023-11-12T01:35:43.392Z,18.20
2023-11-12T01:38:15.107Z,17.00
2023-11-12T01:40:46.936Z,17.30
2023-11-12T01:43:20.229Z,18.00
2023-11-12T01:45:51.944Z,18.10
2023-11-12T01:48:24.632Z,17.40
2023-11-12T01:50:56.609Z,18.60
2023-11-12T01:53:29.097Z,19.30
2023-11-12T01:56:01.593Z,18.70
2023-11-12T01:58:33.555Z,18.30
2023-11-12T02:04:20.591Z,17.80
2023-11-12T02:06:57.180Z,17.80
2023-11-12T02:09:32.438Z,19.10
2023-11-12T02:12:09.182Z,18.00
2023-11-12T02:14:40.931Z,20.10
2023-11-12T02:17:12.716Z,19.50
2023-11-12T02:19:48.091Z,20.20
2023-11-12T02:22:22.458Z,20.30
2023-11-12T02:24:58.180Z,20.20
2023-11-12T02:27:45.945Z,20.00
2023-11-12T02:30:22.222Z,20.10
2023-11-12T02:32:54.103Z,21.40
2023-11-12T02:35:33.886Z,20.30
2023-11-12T02:38:05.714Z,20.80
2023-11-12T02:40:40.432Z,20.10
2023-11-12T02:43:12.446Z,19.40
2023-11-12T02:45:47.894Z,19.60
2023-11-12T02:48:22.205Z,18.90
2023-11-12T02:50:55.747Z,19.40
2023-11-12T02:56:02.806Z,18.50
2023-11-12T02:58:37.257Z,18.60
2023-11-12T03:01:11.406Z,18.80
2023-11-12T03:03:50.506Z,19.10
2023-11-12T03:06:24.367Z,19.50
2023-11-12T03:08:58.874Z,19.30
2023-11-12T03:11:30.626Z,20.60
2023-11-12T03:14:05.780Z,21.30
2023-11-12T03:16:42.444Z,21.70
2023-11-12T03:19:14.387Z,22.70
2023-11-12T03:21:54.415Z,22.50
2023-11-12T03:24:38.823Z,23.20
2023-11-12T03:27:20.815Z,24.00
2023-11-12T03:29:52.774Z,24.00
2023-11-12T03:32:35.337Z,24.60
2023-11-12T03:35:12.900Z,23.70
2023-11-12T03:38:04.740Z,24.10
2023-11-12T03:40:36.513Z,24.70
2023-11-12T03:43:14.373Z,25.70
2023-11-12T03:45:51.848Z,25.80
2023-11-12T03:48:39.141Z,26.10
2023-11-12T03:51:17.794Z,25.70
2023-11-12T03:54:00.120Z,25.20
2023-11-12T03:56:33.497Z,25.40
2023-11-12T03:59:05.267Z,24.30
2023-11-12T04:01:41.687Z,25.00
2023-11-12T04:04:24.128Z,25.50
2023-11-12T04:07:02.110Z,26.20
2023-11-12T04:09:37.466Z,24.30
2023-11-12T04:12:38.189Z,23.50
2023-11-12T04:15:19.958Z,24.10
2023-11-12T04:17:56.961Z,23.10
2023-11-12T04:20:34.911Z,22.00
2023-11-12T04:23:07.739Z,22.60
2023-11-12T04:26:05.113Z,22.00
2023-11-12T04:28:56.611Z,23.10
2023-11-12T04:31:41.557Z,21.60
2023-11-12T04:34:21.222Z,20.00
2023-11-12T04:36:53.110Z,19.70
2023-11-12T04:39:55.759Z,19.60
2023-11-12T04:42:36.369Z,18.70
2023-11-12T04:45:13.217Z,18.10
2023-11-12T04:47:45.166Z,18.50
2023-11-12T04:50:21.387Z,18.10
2023-11-12T04:53:00.427Z,18.00
2023-11-12T04:55:37.299Z,17.40
2023-11-12T04:58:10.215Z,17.60
2023-11-12T05:00:45.918Z,17.30
2023-11-12T05:03:17.911Z,16.80
2023-11-12T05:05:53.002Z,17.50
2023-11-12T05:08:30.011Z,15.90
2023-11-12T05:11:06.904Z,16.10
2023-11-12T05:13:52.168Z,14.90
2023-11-12T05:16:28.652Z,14.80
2023-11-12T05:19:07.959Z,14.40
2023-11-12T05:21:46.912Z,14.00
2023-11-12T05:24:26.758Z,15.10
2023-11-12T05:27:03.799Z,13.60
2023-11-12T05:29:37.700Z,12.70
2023-11-12T05:32:15.780Z,12.80
2023-11-12T05:34:58.569Z,12.60
2023-11-12T05:37:35.141Z,12.20
2023-11-12T05:40:13.577Z,12.10
2023-11-12T05:42:49.674Z,13.10
2023-11-12T05:45:21.476Z,12.90
2023-11-12T05:47:59.137Z,12.40
2023-11-12T05:50:33.873Z,13.10
2023-11-12T05:53:08.135Z,12.80
2023-11-12T05:55:42.160Z,13.20
2023-11-12T06:00:54.842Z,13.00
2023-11-12T06:03:37.995Z,13.10
2023-11-12T06:06:13.049Z,13.80
2023-11-12T06:08:44.866Z,13.80
2023-11-12T06:11:22.175Z,14.80
2023-11-12T06:13:54.822Z,16.60
2023-11-12T06:16:26.525Z,15.40
2023-11-12T06:19:03.996Z,14.80
2023-11-12T06:21:38.546Z,16.90
2023-11-12T06:24:10.551Z,16.30
2023-11-12T06:26:46.844Z,18.10
2023-11-12T06:29:25.201Z,17.60
2023-11-12T06:32:01.418Z,18.70
2023-11-12T06:34:42.573Z,18.20
2023-11-12T06:37:14.248Z,17.40
2023-11-12T06:39:47.948Z,18.60
2023-11-12T06:42:19.708Z,17.90
2023-11-12T06:44:56.100Z,18.30
2023-11-12T06:47:27.885Z,18.90
2023-11-12T06:50:07.248Z,18.20
2023-11-12T06:52:51.406Z,18.40
2023-11-12T06:55:34.217Z,17.70
2023-11-12T06:58:08.135Z,18.80
2023-11-12T07:00:43.031Z,18.70
2023-11-12T07:03:20.345Z,18.00
2023-11-12T07:05:56.752Z,21.90
2023-11-12T07:08:34.070Z,24.50
2023-11-12T07:11:10.750Z,24.20
2023-11-12T07:13:44.314Z,27.70
2023-11-12T07:16:19.700Z,25.70
2023-11-12T07:19:14.983Z,23.10
2023-11-12T07:22:06.946Z,24.90
2023-11-12T07:25:01.265Z,23.40
2023-11-12T07:27:46.318Z,20.50
2023-11-12T07:30:18.658Z,21.50
2023-11-12T07:32:50.666Z,19.70
2023-11-12T07:35:22.681Z,18.30
2023-11-12T07:37:54.395Z,20.90
2023-11-12T07:40:28.240Z,18.30
2023-11-12T07:42:59.981Z,18.70
2023-11-12T07:45:38.144Z,16.90
2023-11-12T07:48:12.705Z,15.70
2023-11-12T07:50:44.446Z,15.30
2023-11-12T07:53:16.150Z,18.90
2023-11-12T07:55:47.930Z,17.60
2023-11-12T07:58:20.578Z,15.60
2023-11-12T08:00:52.383Z,15.70
2023-11-12T08:03:24.198Z,19.60
2023-11-12T08:05:56.006Z,27.70
2023-11-12T08:08:27.902Z,26.90
2023-11-12T08:11:02.581Z,24.70
2023-11-12T08:13:34.249Z,28.30
2023-11-12T08:16:06.621Z,31.60
2023-11-12T08:18:38.603Z,27.20
2023-11-12T08:21:11.526Z,28.90
2023-11-12T08:23:43.361Z,23.10
2023-11-12T08:26:16.084Z,18.60
2023-11-12T08:28:48.735Z,14.90
2023-11-12T08:31:20.467Z,13.40
2023-11-12T08:33:53.006Z,12.80
2023-11-12T08:36:24.830Z,12.40
2023-11-12T08:38:57.250Z,16.00
2023-11-12T08:41:29.983Z,18.00
2023-11-12T08:44:01.674Z,11.00
2023-11-12T08:46:33.446Z,11.60
2023-11-12T08:49:07.497Z,10.70
2023-11-12T08:51:39.345Z,10.00
2023-11-12T08:54:11.519Z,10.00
2023-11-12T08:56:43.273Z,10.50
2023-11-12T08:59:15.069Z,10.40
2023-11-12T09:01:47.708Z,11.20
2023-11-12T09:04:19.585Z,12.10
2023-11-12T09:06:51.455Z,10.70
2023-11-12T09:09:23.172Z,9.70
2023-11-12T09:11:57.604Z,9.80
2023-11-12T09:14:29.920Z,9.70
2023-11-12T09:17:02.346Z,10.30
2023-11-12T09:19:34.064Z,9.40
2023-11-12T09:22:05.891Z,9.50
2023-11-12T09:24:43.023Z,9.20
2023-11-12T09:27:19.953Z,9.90
2023-11-12T09:29:52.852Z,8.80
2023-11-12T09:32:24.734Z,8.80
2023-11-12T09:34:56.445Z,10.10
2023-11-12T09:37:28.249Z,10.50
2023-11-12T09:40:00.855Z,8.70
2023-11-12T09:42:32.906Z,11.40
2023-11-12T09:45:07.036Z,10.40
2023-11-12T09:47:57.801Z,10.10
2023-11-12T09:50:31.868Z,9.40
2023-11-12T09:53:06.965Z,9.70
2023-11-12T09:55:38.754Z,9.20
2023-11-12T09:58:10.413Z,9.30
2023-11-12T10:00:44.667Z,9.20
2023-11-12T10:03:16.546Z,43.60
2023-11-12T10:05:48.954Z,15.70
2023-11-12T10:08:22.286Z,14.70
2023-11-12T10:10:54.011Z,11.40
2023-11-12T10:13:36.900Z,11.50
2023-11-12T10:16:31.339Z,10.10
2023-11-12T10:19:15.228Z,11.20
2023-11-12T10:21:55.557Z,11.60
2023-11-12T10:24:32.104Z,11.40
2023-11-12T10:27:06.482Z,10.20
2023-11-12T10:29:38.800Z,10.90
2023-11-12T10:32:26.023Z,10.50
2023-11-12T10:34:57.839Z,9.90
2023-11-12T10:37:29.543Z,8.60
2023-11-12T10:40:08.277Z,9.40
2023-11-12T10:42:40.982Z,10.00
2023-11-12T10:45:17.642Z,10.40
2023-11-12T10:47:52.522Z,10.50
2023-11-12T10:50:29.506Z,8.40
2023-11-12T10:53:01.720Z,8.10
2023-11-12T10:55:35.009Z,6.80
2023-11-12T10:58:09.745Z,6.50
2023-11-12T11:00:42.032Z,6.30
2023-11-12T11:03:14.149Z,5.50
2023-11-12T11:05:46.054Z,5.70
2023-11-12T11:08:18.953Z,6.90
2023-11-12T11:10:52.371Z,6.00
2023-11-12T11:13:41.747Z,6.50
2023-11-12T11:16:49.793Z,5.10
2023-11-12T11:19:44.517Z,5.20
2023-11-12T11:22:24.986Z,4.20
2023-11-12T11:24:58.085Z,4.30
2023-11-12T11:27:31.033Z,5.30
2023-11-12T11:30:13.558Z,4.60
2023-11-12T11:32:56.349Z,4.00
2023-11-12T11:35:30.406Z,3.80
2023-11-12T11:38:12.848Z,3.80
2023-11-12T11:40:59.668Z,3.80
2023-11-12T11:43:33.275Z,3.20
2023-11-12T11:46:11.637Z,3.30
2023-11-12T11:48:43.582Z,3.10
2023-11-12T11:51:38.651Z,5.40
2023-11-12T11:54:17.934Z,3.70
2023-11-12T11:56:51.378Z,3.00
2023-11-12T11:59:24.315Z,3.30
2023-11-12T12:02:00.654Z,4.90
2023-11-12T12:04:34.069Z,4.60
2023-11-12T12:07:06.186Z,3.90
2023-11-12T12:09:38.309Z,3.70
2023-11-12T12:12:10.014Z,4.70
2023-11-12T12:14:42.446Z,3.00
2023-11-12T12:17:15.074Z,3.40
2023-11-12T12:19:52.588Z,2.00
2023-11-12T12:22:28.811Z,2.20
2023-11-12T12:25:02.192Z,2.50
2023-11-12T12:27:34.044Z,2.70
2023-11-12T12:30:09.275Z,2.60
2023-11-12T12:32:41.041Z,2.40
2023-11-12T12:35:22.133Z,3.20
2023-11-12T12:38:06.937Z,2.90
2023-11-12T12:40:38.883Z,2.50
2023-11-12T12:43:12.185Z,2.80
2023-11-12T12:45:57.670Z,2.40
2023-11-12T12:48:31.202Z,1.90
2023-11-12T12:51:04.404Z,2.10
2023-11-12T12:53:36.077Z,2.30
2023-11-12T12:56:08.076Z,3.20
2023-11-12T12:58:39.925Z,3.00
2023-11-12T13:01:12.520Z,3.60
2023-11-12T13:03:47.987Z,2.40
2023-11-12T13:06:20.400Z,2.10
2023-11-12T13:08:52.273Z,2.40
2023-11-12T13:11:27.180Z,2.20
2023-11-12T13:13:58.965Z,2.50
2023-11-12T13:16:32.806Z,2.50
2023-11-12T13:21:51.665Z,2.90
2023-11-12T13:24:30.630Z,3.20
2023-11-12T13:29:34.426Z,3.90
2023-11-12T13:32:09.231Z,3.50
2023-11-12T13:34:45.155Z,4.10
2023-11-12T13:37:17.075Z,7.00
2023-11-12T13:39:50.323Z,5.30
2023-11-12T13:42:22.663Z,5.20
2023-11-12T13:44:55.084Z,6.40
2023-11-12T13:47:46.867Z,7.00
2023-11-12T13:50:26.494Z,5.00
2023-11-12T13:53:11.050Z,4.60
2023-11-12T13:55:44.825Z,5.20
2023-11-12T13:58:17.633Z,4.80
2023-11-12T14:00:52.862Z,4.70
2023-11-12T14:03:28.720Z,7.10
2023-11-12T14:06:01.525Z,6.40
2023-11-12T14:08:33.315Z,3.90
2023-11-12T14:11:12.945Z,3.70
2023-11-12T14:13:47.615Z,3.70
2023-11-12T14:16:24.725Z,3.50
2023-11-12T14:19:13.695Z,2.80
2023-11-12T14:21:51.010Z,4.80
2023-11-12T14:24:27.566Z,4.90
2023-11-12T14:27:02.302Z,6.00
2023-11-12T14:29:39.172Z,4.30
2023-11-12T14:32:13.808Z,4.00
2023-11-12T14:34:59.973Z,4.10
2023-11-12T14:37:49.921Z,5.80
2023-11-12T14:40:32.485Z,4.70
2023-11-12T14:43:08.380Z,5.90
2023-11-12T14:45:45.878Z,6.90
2023-11-12T14:48:20.821Z,6.80
2023-11-12T14:51:09.290Z,6.20
2023-11-12T14:53:45.864Z,6.00
2023-11-12T14:56:21.759Z,5.90
2023-11-12T14:58:56.036Z,6.40
2023-11-12T15:01:28.152Z,6.80
2023-11-12T15:04:00.627Z,7.20
2023-11-12T15:06:32.367Z,7.20
2023-11-12T15:09:08.829Z,8.50
2023-11-12T15:11:41.955Z,15.40
2023-11-12T15:14:13.777Z,27.90
2023-11-12T15:16:45.591Z,26.30
2023-11-12T15:19:17.410Z,25.50
2023-11-12T15:21:49.298Z,24.70
2023-11-12T15:24:24.041Z,23.50
2023-11-12T15:26:55.766Z,24.90
2023-11-12T15:29:27.646Z,24.10
2023-11-12T15:31:59.377Z,28.30
2023-11-12T15:34:31.124Z,23.30
2023-11-12T15:37:02.786Z,19.80
2023-11-12T15:39:34.615Z,17.00
2023-11-12T15:42:09.221Z,20.10
2023-11-12T15:44:41.129Z,21.10
2023-11-12T15:47:14.371Z,24.50
2023-11-12T15:49:48.089Z,27.10
2023-11-12T15:52:21.715Z,31.10
2023-11-12T15:57:27.486Z,22.80
2023-11-12T15:59:59.708Z,21.40
2023-11-12T16:02:31.478Z,21.20
2023-11-12T16:05:04.151Z,29.10
2023-11-12T16:07:36.046Z,27.80
2023-11-12T16:10:10.082Z,24.50
2023-11-12T16:12:42.526Z,25.10
2023-11-12T16:15:16.980Z,31.50
2023-11-12T16:17:50.587Z,25.10
2023-11-12T16:20:22.525Z,29.70
2023-11-12T16:22:54.333Z,30.80
2023-11-12T16:25:26.216Z,33.00
2023-11-12T16:27:57.920Z,29.40
2023-11-12T16:30:30.003Z,27.40
2023-11-12T16:33:01.699Z,23.20
2023-11-12T16:35:33.673Z,23.00
2023-11-12T16:38:08.345Z,39.90
2023-11-12T16:40:40.632Z,29.40
2023-11-12T16:43:13.784Z,14.90
2023-11-12T16:45:45.739Z,19.00
2023-11-12T16:48:17.659Z,16.60
2023-11-12T16:50:49.322Z,16.30
2023-11-12T16:53:22.073Z,17.80
2023-11-12T16:55:55.693Z,17.50
2023-11-12T16:58:27.405Z,24.20
2023-11-12T17:00:59.142Z,24.10
2023-11-12T17:03:31.360Z,23.30
2023-11-12T17:06:03.424Z,19.80
2023-11-12T17:08:35.123Z,19.90
2023-11-12T17:11:07.046Z,32.00
2023-11-12T17:13:38.721Z,25.40
2023-11-12T17:16:11.021Z,21.80
2023-11-12T17:18:42.745Z,19.70
2023-11-12T17:21:14.487Z,22.80
2023-11-12T17:23:48.856Z,35.20
2023-11-12T17:26:20.555Z,26.70
2023-11-12T17:28:52.283Z,25.20
2023-11-12T17:31:23.971Z,25.80
2023-11-12T17:33:58.513Z,28.60
2023-11-12T17:36:30.431Z,26.30
2023-11-12T17:39:02.135Z,33.10
2023-11-12T17:41:34.553Z,34.30
2023-11-12T17:44:08.642Z,33.40
2023-11-12T17:46:40.544Z,31.70
2023-11-12T17:49:13.051Z,28.90
2023-11-12T17:51:44.898Z,24.70
2023-11-12T17:54:17.380Z,27.60
2023-11-12T17:56:49.101Z,27.60
2023-11-12T17:59:21.752Z,29.60
2023-11-12T18:01:53.810Z,34.40
2023-11-12T18:04:25.647Z,31.20
2023-11-12T18:06:58.776Z,24.40
2023-11-12T18:09:30.429Z,26.90
2023-11-12T18:12:02.071Z,24.20
2023-11-12T18:14:34.424Z,19.40
2023-11-12T18:17:06.159Z,22.70
2023-11-12T18:19:37.825Z,18.30
2023-11-12T18:22:11.013Z,20.60
2023-11-12T18:24:45.060Z,18.90
2023-11-12T18:27:16.700Z,21.80
2023-11-12T18:29:48.555Z,21.10
2023-11-12T18:32:20.341Z,22.70
2023-11-12T18:34:51.997Z,19.10
2023-11-12T18:37:24.465Z,18.20
2023-11-12T18:39:56.173Z,18.70
2023-11-12T18:42:28.255Z,21.10
2023-11-12T18:44:59.903Z,22.10
2023-11-12T18:47:32.491Z,23.30
2023-11-12T18:50:04.803Z,26.50
2023-11-12T18:52:36.516Z,24.80
2023-11-12T18:55:09.503Z,23.10
2023-11-12T18:57:42.627Z,24.10
2023-11-12T19:00:15.674Z,50.50
2023-11-12T19:02:48.200Z,33.10
2023-11-12T19:05:20.009Z,26.90
2023-11-12T19:07:51.701Z,140.10
2023-11-12T19:10:24.095Z,51.20
2023-11-12T19:12:55.983Z,40.70
2023-11-12T19:15:27.718Z,45.90
2023-11-12T19:17:59.471Z,51.20
2023-11-12T19:20:32.293Z,39.00
2023-11-12T19:23:04.470Z,51.30
2023-11-12T19:25:40.245Z,59.30
2023-11-12T19:28:12.112Z,41.60
2023-11-12T19:30:43.989Z,29.20
2023-11-12T19:33:15.874Z,31.60
2023-11-12T19:35:47.651Z,35.50
2023-11-12T19:38:19.318Z,35.00
2023-11-12T19:40:52.932Z,27.20
2023-11-12T19:45:57.211Z,38.00
2023-11-12T19:48:28.875Z,37.20
2023-11-12T19:51:00.829Z,31.90
2023-11-12T19:53:32.514Z,26.10
2023-11-12T19:56:04.868Z,24.40
2023-11-12T19:58:37.845Z,22.40
2023-11-12T20:01:09.647Z,17.70
2023-11-12T20:03:42.075Z,17.70
2023-11-12T20:06:14.292Z,13.90
2023-11-12T20:08:45.960Z,17.10
2023-11-12T20:11:19.793Z,16.60
2023-11-12T20:13:53.848Z,16.40
2023-11-12T20:16:25.555Z,16.60
2023-11-12T20:18:57.389Z,13.80
2023-11-12T20:21:29.286Z,12.50
2023-11-12T20:24:00.933Z,14.60
2023-11-12T20:26:33.041Z,12.70
2023-11-12T20:29:04.668Z,13.30
2023-11-12T20:31:36.475Z,13.50
2023-11-12T20:34:11.518Z,13.60
2023-11-12T20:36:43.305Z,15.50
2023-11-12T20:39:17.850Z,14.80
2023-11-12T20:41:52.032Z,14.50
2023-11-12T20:44:25.064Z,13.40
2023-11-12T20:46:57.007Z,15.80
2023-11-12T20:49:28.757Z,15.70
2023-11-12T20:52:00.674Z,17.60
2023-11-12T20:54:33.206Z,17.60
2023-11-12T20:57:07.419Z,17.60
2023-11-12T20:59:39.465Z,20.10
2023-11-12T21:02:18.848Z,20.20
2023-11-12T21:04:57.103Z,18.60
2023-11-12T21:07:29.707Z,14.80
2023-11-12T21:10:01.570Z,14.70
2023-11-12T21:12:33.432Z,16.50
2023-11-12T21:15:07.589Z,17.30
2023-11-12T21:17:46.868Z,14.10
2023-11-12T21:20:28.485Z,13.90
2023-11-12T21:23:00.231Z,13.60
2023-11-12T21:25:35.022Z,14.10
2023-11-12T21:28:25.193Z,14.20
2023-11-12T21:31:18.056Z,14.40
2023-11-12T21:33:55.555Z,15.80
2023-11-12T21:36:47.615Z,16.30
2023-11-12T21:39:39.802Z,14.20
2023-11-12T21:42:52.665Z,13.20
2023-11-12T21:45:29.464Z,14.20
2023-11-12T21:48:04.810Z,14.70
2023-11-12T21:50:40.419Z,15.30
2023-11-12T21:53:12.264Z,14.00
2023-11-12T21:55:46.085Z,13.70
2023-11-12T21:58:19.141Z,13.60
2023-11-12T22:01:02.047Z,13.80
2023-11-12T22:04:09.763Z,14.70
2023-11-12T22:06:51.380Z,14.50
2023-11-12T22:09:31.073Z,14.60
2023-11-12T22:12:06.013Z,13.00
2023-11-12T22:14:41.584Z,15.70
2023-11-12T22:17:13.526Z,15.30
2023-11-12T22:19:45.318Z,12.60
2023-11-12T22:22:17.135Z,12.70
2023-11-12T22:24:56.051Z,13.50
2023-11-12T22:27:34.561Z,12.60
2023-11-12T22:30:09.084Z,12.60
2023-11-12T22:32:50.814Z,12.50
2023-11-12T22:35:23.644Z,13.30
2023-11-12T22:37:55.445Z,12.00
2023-11-12T22:40:28.265Z,9.50
2023-11-12T22:43:01.173Z,9.70
2023-11-12T22:45:43.583Z,8.10
2023-11-12T22:48:15.311Z,9.40
2023-11-12T22:50:47.148Z,10.10
2023-11-12T22:53:28.046Z,10.50
2023-11-12T22:56:00.532Z,10.70
2023-11-12T22:58:32.550Z,11.10
2023-11-12T23:01:26.899Z,9.50
2023-11-12T23:03:58.724Z,8.70
2023-11-12T23:06:50.597Z,8.80
2023-11-12T23:09:30.025Z,8.50
2023-11-12T23:12:04.441Z,9.50
2023-11-12T23:14:42.738Z,8.70
2023-11-12T23:17:36.610Z,8.10
2023-11-12T23:20:12.228Z,7.90
2023-11-12T23:22:45.533Z,8.40
2023-11-12T23:25:37.173Z,8.50
2023-11-12T23:28:11.081Z,9.40
2023-11-12T23:31:03.414Z,7.70
2023-11-12T23:33:39.149Z,8.10
2023-11-12T23:36:19.371Z,7.30
2023-11-12T23:38:51.743Z,7.00
2023-11-12T23:41:29.283Z,7.50
2023-11-12T23:44:01.504Z,6.90
2023-11-12T23:46:34.272Z,7.20
2023-11-12T23:49:14.921Z,7.00
2023-11-12T23:51:48.584Z,7.20
2023-11-12T23:54:20.333Z,8.00
2023-11-12T23:57:12.875Z,8.20
2023-11-12T23:59:47.787Z,8.40
